Time;durP1;ratioP1;P1;durP2;ratioP2;P2;SDS_P1;SDS_P2;PMS_P1;PMS_P2;Temp;Humidity;BMP_temperature;BMP_pressure;BME280_temperature;BME280_humidity;BME280_pressure;Samples;Min_cycle;Max_cycle;Signal;HPM_P1;HPM_P2
2023/06/06 00:01:23;;;;;;;6.80;6.10;;;21.10;55.80;;;;;;5053974;28;20481;-56
2023/06/06 00:03:50;;;;;;;6.17;5.50;;;21.00;56.00;;;;;;5053739;28;20456;-57
2023/06/06 00:06:20;;;;;;;9.87;6.03;;;21.00;56.30;;;;;;5053853;28;20473;-57
2023/06/06 00:08:50;;;;;;;9.07;6.07;;;21.00;56.50;;;;;;5054189;28;20430;-56
2023/06/06 00:11:16;;;;;;;8.50;6.27;;;21.00;56.50;;;;;;5053623;28;20457;-56
2023/06/06 00:13:43;;;;;;;10.03;6.70;;;20.90;56.60;;;;;;5054632;28;20456;-56
2023/06/06 00:16:12;;;;;;;7.77;6.73;;;20.90;56.90;;;;;;5054274;28;20569;-56
2023/06/06 00:18:40;;;;;;;8.70;7.80;;;20.90;57.10;;;;;;5053637;28;20450;-56
2023/06/06 00:21:08;;;;;;;9.60;7.13;;;20.80;57.30;;;;;;5053233;28;20999;-56
2023/06/06 00:23:35;;;;;;;7.30;6.53;;;20.80;57.50;;;;;;5053514;28;20485;-56
2023/06/06 00:26:03;;;;;;;8.10;6.07;;;20.80;57.50;;;;;;5053421;28;20477;-57
2023/06/06 00:28:29;;;;;;;8.30;7.27;;;20.70;57.60;;;;;;5053467;28;20449;-57
2023/06/06 00:30:56;;;;;;;11.10;7.47;;;20.70;57.90;;;;;;5053402;28;20814;-56
2023/06/06 00:33:23;;;;;;;7.13;6.20;;;20.60;58.20;;;;;;5053345;28;20454;-57
2023/06/06 00:35:50;;;;;;;8.13;7.23;;;20.60;58.30;;;;;;5053014;28;21002;-57
2023/06/06 00:38:17;;;;;;;9.30;7.10;;;20.60;58.60;;;;;;5053040;28;20837;-56
2023/06/06 00:40:43;;;;;;;8.17;7.30;;;20.50;58.50;;;;;;5053241;28;20477;-56
2023/06/06 00:43:11;;;;;;;7.03;6.43;;;20.50;58.70;;;;;;5053309;28;20456;-57
2023/06/06 00:45:38;;;;;;;9.50;6.50;;;20.50;58.90;;;;;;5053235;28;20449;-57
2023/06/06 00:48:05;;;;;;;9.00;7.23;;;20.40;59.10;;;;;;5052927;28;20804;-56
2023/06/06 00:50:34;;;;;;;11.97;6.93;;;20.40;59.40;;;;;;5053202;28;20449;-56
2023/06/06 00:53:03;;;;;;;7.60;6.90;;;20.30;59.40;;;;;;5053406;28;20450;-56
2023/06/06 00:55:31;;;;;;;8.40;7.60;;;20.30;59.40;;;;;;5053087;28;20457;-55
2023/06/06 00:57:59;;;;;;;8.33;7.17;;;20.30;59.70;;;;;;5053219;28;20445;-55
2023/06/06 01:00:32;;;;;;;9.23;7.90;;;20.20;59.80;;;;;;5053018;28;20485;-56
2023/06/06 01:02:59;;;;;;;8.90;8.00;;;20.20;59.80;;;;;;5053221;28;20440;-55
2023/06/06 01:05:26;;;;;;;8.90;7.27;;;20.20;60.00;;;;;;5052994;28;20539;-55
2023/06/06 01:07:53;;;;;;;11.73;7.53;;;20.10;60.10;;;;;;5052777;28;20948;-55
2023/06/06 01:10:20;;;;;;;8.30;7.50;;;20.10;60.50;;;;;;5052717;28;20453;-55
2023/06/06 01:12:55;;;;;;;11.40;8.80;;;20.00;60.60;;;;;;5052583;28;20845;-56
2023/06/06 01:15:25;;;;;;;10.77;8.73;;;20.00;60.90;;;;;;5054339;28;20433;-56
2023/06/06 01:17:54;;;;;;;9.30;8.20;;;20.00;60.80;;;;;;5057174;28;20528;-56
2023/06/06 01:20:23;;;;;;;9.10;7.67;;;19.90;61.20;;;;;;5056479;28;20947;-56
2023/06/06 01:22:54;;;;;;;9.57;6.80;;;19.90;61.30;;;;;;5056861;28;20536;-56
2023/06/06 01:25:23;;;;;;;10.10;8.30;;;19.80;61.60;;;;;;5057321;28;20519;-56
2023/06/06 01:27:53;;;;;;;8.23;7.40;;;19.80;61.60;;;;;;5057385;28;20446;-56
2023/06/06 01:30:22;;;;;;;8.20;7.40;;;19.80;61.70;;;;;;5056711;28;20549;-56
2023/06/06 01:32:57;;;;;;;7.93;7.20;;;19.70;61.90;;;;;;5056731;28;20460;-57
2023/06/06 01:35:29;;;;;;;9.63;7.40;;;19.70;62.10;;;;;;5057167;28;20445;-56
2023/06/06 01:38:07;;;;;;;9.93;8.10;;;19.60;62.40;;;;;;5056650;28;20453;-56
2023/06/06 01:40:34;;;;;;;8.97;8.17;;;19.60;62.30;;;;;;5056511;28;20469;-56
2023/06/06 01:43:03;;;;;;;8.47;7.07;;;19.50;62.60;;;;;;5056505;28;20445;-56
2023/06/06 01:45:31;;;;;;;10.90;7.77;;;19.50;62.90;;;;;;5056167;28;20450;-56
2023/06/06 01:47:59;;;;;;;8.70;7.80;;;19.40;63.00;;;;;;5056423;28;20449;-56
2023/06/06 01:50:26;;;;;;;12.00;7.60;;;19.40;63.40;;;;;;5056326;28;20556;-56
2023/06/06 01:52:54;;;;;;;8.30;7.50;;;19.40;63.50;;;;;;5056525;28;20449;-56
2023/06/06 01:55:22;;;;;;;9.40;8.40;;;19.30;63.70;;;;;;5056249;28;20528;-56
2023/06/06 01:57:48;;;;;;;10.77;7.90;;;19.30;64.10;;;;;;5056303;28;20449;-56
2023/06/06 02:00:17;;;;;;;11.77;8.33;;;19.30;64.20;;;;;;5056185;28;20453;-56
2023/06/06 02:02:44;;;;;;;8.80;7.80;;;19.20;64.30;;;;;;5056112;28;20516;-56
2023/06/06 02:05:11;;;;;;;9.77;8.77;;;19.20;64.50;;;;;;5055833;28;20858;-56
2023/06/06 02:07:37;;;;;;;8.87;7.33;;;19.20;64.60;;;;;;5055983;28;20481;-56
2023/06/06 02:10:05;;;;;;;8.20;7.40;;;19.20;64.70;;;;;;5056130;28;20445;-56
2023/06/06 02:12:34;;;;;;;9.30;7.87;;;19.10;64.60;;;;;;5055768;28;20481;-56
2023/06/06 02:15:01;;;;;;;9.13;8.23;;;19.10;64.70;;;;;;5055984;28;20445;-56
2023/06/06 02:17:28;;;;;;;9.00;8.10;;;19.10;65.00;;;;;;5055827;28;20469;-56
2023/06/06 02:19:54;;;;;;;10.23;8.37;;;19.10;64.80;;;;;;5055764;28;20822;-56
2023/06/06 02:22:21;;;;;;;8.53;7.67;;;19.00;64.90;;;;;;5055969;28;20477;-56
2023/06/06 02:24:49;;;;;;;11.43;8.30;;;18.90;65.10;;;;;;5055804;28;20476;-56
2023/06/06 02:27:16;;;;;;;9.43;8.40;;;18.90;65.20;;;;;;5054421;28;20470;-56
2023/06/06 02:29:45;;;;;;;8.70;7.80;;;18.90;65.60;;;;;;5055388;28;20810;-56
2023/06/06 02:32:12;;;;;;;9.50;8.60;;;18.80;65.60;;;;;;5055961;28;20453;-56
2023/06/06 02:34:39;;;;;;;9.70;8.70;;;18.80;65.50;;;;;;5055842;28;20824;-57
2023/06/06 02:37:06;;;;;;;8.90;8.03;;;18.70;65.80;;;;;;5055828;28;20470;-56
2023/06/06 02:39:33;;;;;;;11.10;8.87;;;18.70;65.90;;;;;;5055443;28;20473;-57
2023/06/06 02:42:00;;;;;;;8.83;7.93;;;18.70;66.20;;;;;;5055359;28;21022;-56
2023/06/06 02:44:27;;;;;;;11.00;8.57;;;18.70;65.90;;;;;;5055241;28;20877;-56
2023/06/06 02:46:55;;;;;;;9.93;8.17;;;18.60;66.10;;;;;;5055261;28;20470;-56
2023/06/06 02:49:22;;;;;;;11.13;8.70;;;18.60;66.20;;;;;;5055337;28;20456;-56
2023/06/06 02:51:48;;;;;;;10.00;9.00;;;18.60;66.20;;;;;;5056405;28;20445;-56
2023/06/06 02:54:15;;;;;;;10.70;8.87;;;18.50;66.50;;;;;;5055239;28;20461;-56
2023/06/06 02:56:42;;;;;;;9.90;8.37;;;18.50;66.50;;;;;;5055217;28;20565;-56
2023/06/06 02:59:09;;;;;;;9.10;8.20;;;18.40;66.60;;;;;;5055198;28;20789;-56
2023/06/06 03:01:44;;;;;;;10.93;8.37;;;18.40;66.70;;;;;;5054665;28;20891;-56
2023/06/06 03:04:13;;;;;;;9.40;8.27;;;18.30;66.80;;;;;;5055379;28;20437;-56
2023/06/06 03:06:40;;;;;;;9.73;8.33;;;18.30;67.00;;;;;;5054910;28;20523;-56
2023/06/06 03:09:07;;;;;;;10.13;9.03;;;18.30;67.20;;;;;;5055000;28;20504;-56
2023/06/06 03:11:34;;;;;;;10.53;9.47;;;18.30;67.50;;;;;;5054815;28;20511;-56
2023/06/06 03:14:01;;;;;;;10.33;9.00;;;18.20;67.30;;;;;;5055081;28;20450;-56
2023/06/06 03:16:28;;;;;;;13.93;9.43;;;18.20;67.60;;;;;;5054731;28;20469;-56
2023/06/06 03:18:55;;;;;;;9.30;8.10;;;18.10;67.60;;;;;;5055017;28;20495;-56
2023/06/06 03:21:23;;;;;;;10.50;9.30;;;18.10;67.80;;;;;;5054467;28;20482;-56
2023/06/06 03:23:53;;;;;;;12.23;8.60;;;18.10;68.00;;;;;;5054390;28;20939;-56
2023/06/06 03:26:20;;;;;;;10.40;9.27;;;18.10;68.00;;;;;;5054298;28;20477;-56
2023/06/06 03:28:47;;;;;;;13.10;9.43;;;18.00;68.00;;;;;;5054628;28;20461;-56
2023/06/06 03:31:15;;;;;;;10.60;8.87;;;18.00;68.20;;;;;;5054574;28;20453;-56
2023/06/06 03:33:41;;;;;;;12.27;8.90;;;18.00;68.50;;;;;;5054247;28;20995;-56
2023/06/06 03:36:08;;;;;;;13.07;9.50;;;17.90;68.40;;;;;;5054479;28;20469;-56
2023/06/06 03:38:36;;;;;;;11.20;9.13;;;17.90;68.90;;;;;;5054115;28;20453;-56
2023/06/06 03:41:03;;;;;;;12.30;9.43;;;17.90;68.80;;;;;;5054527;28;20818;-56
2023/06/06 03:43:30;;;;;;;10.83;8.77;;;17.80;69.00;;;;;;5054332;28;20477;-56
2023/06/06 03:45:57;;;;;;;11.30;9.30;;;17.90;69.20;;;;;;5054842;28;20527;-56
2023/06/06 03:48:24;;;;;;;11.17;9.00;;;17.80;69.00;;;;;;5054301;28;20472;-56
2023/06/06 03:50:50;;;;;;;9.77;8.77;;;17.80;69.20;;;;;;5054160;28;20507;-56
2023/06/06 03:53:17;;;;;;;12.30;9.10;;;17.80;69.20;;;;;;5053806;28;20449;-56
2023/06/06 03:55:46;;;;;;;11.10;10.00;;;17.90;69.20;;;;;;5053988;28;20466;-56
2023/06/06 03:58:13;;;;;;;10.33;9.33;;;17.80;69.10;;;;;;5054010;28;20449;-56
2023/06/06 04:00:40;;;;;;;10.30;9.30;;;17.80;69.40;;;;;;5054696;28;20534;-57
2023/06/06 04:03:07;;;;;;;12.77;9.10;;;17.70;69.30;;;;;;5055678;28;20481;-56
2023/06/06 04:05:34;;;;;;;12.57;9.73;;;17.70;69.90;;;;;;5054763;28;20446;-56
2023/06/06 04:08:01;;;;;;;14.53;9.87;;;17.70;69.90;;;;;;5053529;28;20970;-56
2023/06/06 04:10:28;;;;;;;13.40;9.60;;;17.70;70.00;;;;;;5053825;28;20445;-56
2023/06/06 04:12:56;;;;;;;10.77;9.47;;;17.70;70.10;;;;;;5053523;28;20468;-56
2023/06/06 04:15:23;;;;;;;11.53;9.60;;;17.70;70.10;;;;;;5053864;28;20449;-56
2023/06/06 04:17:50;;;;;;;13.30;9.83;;;17.70;69.80;;;;;;5053554;28;20445;-56
2023/06/06 04:20:17;;;;;;;13.53;8.90;;;17.70;70.00;;;;;;5053552;28;20442;-56
2023/06/06 04:22:44;;;;;;;12.63;9.50;;;17.80;70.10;;;;;;5053508;28;20886;-56
2023/06/06 04:25:12;;;;;;;13.20;9.77;;;17.70;70.40;;;;;;5053495;28;20454;-56
2023/06/06 04:27:40;;;;;;;10.83;9.83;;;17.80;70.70;;;;;;5053428;28;20873;-56
2023/06/06 04:30:12;;;;;;;11.10;9.20;;;17.80;70.90;;;;;;5053450;28;20461;-56
2023/06/06 04:32:39;;;;;;;11.77;10.17;;;17.80;70.90;;;;;;5053881;28;20484;-56
2023/06/06 04:35:07;;;;;;;10.27;9.20;;;17.80;71.00;;;;;;5053434;28;20452;-56
2023/06/06 04:37:34;;;;;;;17.43;10.10;;;17.80;70.90;;;;;;5053062;28;20990;-56
2023/06/06 04:40:00;;;;;;;16.10;9.77;;;17.90;71.30;;;;;;5053348;28;20495;-56
2023/06/06 04:42:32;;;;;;;12.40;10.53;;;17.80;71.40;;;;;;5052928;28;20998;-56
2023/06/06 04:45:00;;;;;;;10.83;9.10;;;17.80;72.00;;;;;;5053326;28;20437;-56
2023/06/06 04:47:29;;;;;;;10.53;9.50;;;17.80;72.00;;;;;;5052895;28;20975;-56
2023/06/06 04:49:57;;;;;;;10.90;9.20;;;17.90;72.10;;;;;;5052181;28;21039;-56
2023/06/06 04:52:24;;;;;;;12.10;9.50;;;17.90;72.10;;;;;;5053283;28;20540;-55
2023/06/06 04:54:51;;;;;;;11.10;9.10;;;17.90;72.40;;;;;;5052896;28;20976;-55
2023/06/06 04:57:19;;;;;;;12.40;11.10;;;18.00;72.40;;;;;;5053512;28;20465;-55
2023/06/06 04:59:50;;;;;;;12.40;10.73;;;18.00;72.70;;;;;;5053180;28;20867;-55
2023/06/06 05:02:18;;;;;;;15.23;9.73;;;18.00;72.70;;;;;;5053847;28;20462;-55
2023/06/06 05:04:46;;;;;;;11.53;9.57;;;18.00;72.80;;;;;;5052763;28;21017;-55
2023/06/06 05:07:13;;;;;;;12.17;9.90;;;18.00;72.80;;;;;;5052984;28;20560;-55
2023/06/06 05:09:39;;;;;;;13.43;10.30;;;18.10;73.10;;;;;;5053218;28;20454;-56
2023/06/06 05:12:07;;;;;;;11.13;10.07;;;18.10;73.00;;;;;;5053079;28;20464;-55
2023/06/06 05:14:33;;;;;;;14.57;10.60;;;18.10;73.10;;;;;;5052675;28;20961;-55
2023/06/06 05:17:00;;;;;;;12.47;10.53;;;18.10;73.30;;;;;;5052936;28;20461;-55
2023/06/06 05:19:27;;;;;;;13.27;10.87;;;18.20;73.80;;;;;;5052870;28;20448;-55
2023/06/06 05:21:55;;;;;;;11.93;10.83;;;18.20;73.90;;;;;;5052922;28;20488;-55
2023/06/06 05:24:22;;;;;;;15.20;9.17;;;18.20;73.80;;;;;;5052930;28;20815;-55
2023/06/06 05:26:48;;;;;;;15.27;10.30;;;18.20;73.90;;;;;;5052816;28;20563;-55
2023/06/06 05:29:15;;;;;;;11.00;9.00;;;18.30;74.10;;;;;;5052846;28;20455;-55
2023/06/06 05:31:42;;;;;;;12.90;11.10;;;18.30;73.70;;;;;;5052904;28;20457;-55
2023/06/06 05:34:09;;;;;;;10.87;9.77;;;18.30;73.40;;;;;;5052788;28;20461;-56
2023/06/06 05:36:35;;;;;;;12.87;10.83;;;18.40;73.40;;;;;;5052358;28;20979;-56
2023/06/06 05:39:04;;;;;;;11.47;10.23;;;18.40;74.70;;;;;;5052827;28;20461;-56
2023/06/06 05:41:31;;;;;;;14.37;10.70;;;18.50;74.00;;;;;;5052788;28;20445;-56
2023/06/06 05:43:57;;;;;;;12.30;10.43;;;18.50;74.00;;;;;;5052628;28;20453;-56
2023/06/06 05:46:26;;;;;;;12.20;9.83;;;18.60;74.20;;;;;;5052812;28;20471;-56
2023/06/06 05:48:52;;;;;;;13.63;10.57;;;18.60;73.90;;;;;;5052735;28;20449;-56
2023/06/06 05:51:19;;;;;;;14.37;10.23;;;18.70;73.80;;;;;;5052676;28;20450;-56
2023/06/06 05:53:46;;;;;;;12.57;11.10;;;18.70;73.60;;;;;;5052698;28;20446;-56
2023/06/06 05:56:16;;;;;;;14.07;11.13;;;18.80;73.50;;;;;;5052581;28;20478;-56
2023/06/06 05:58:45;;;;;;;11.10;9.90;;;18.90;73.80;;;;;;5052641;28;20457;-56
2023/06/06 06:01:12;;;;;;;12.10;10.13;;;18.90;73.40;;;;;;5053613;28;20541;-56
2023/06/06 06:03:40;;;;;;;13.33;9.63;;;18.90;73.40;;;;;;5056139;28;20481;-56
2023/06/06 06:06:08;;;;;;;11.30;9.00;;;19.00;73.00;;;;;;5056308;28;20497;-56
2023/06/06 06:08:35;;;;;;;15.07;10.63;;;19.10;72.80;;;;;;5056075;28;20461;-56
2023/06/06 06:11:02;;;;;;;11.83;10.63;;;19.20;72.60;;;;;;5055571;28;20496;-56
2023/06/06 06:13:30;;;;;;;11.97;10.67;;;19.30;72.40;;;;;;5055692;28;20893;-56
2023/06/06 06:15:57;;;;;;;12.63;10.60;;;19.40;72.50;;;;;;5055911;28;20464;-56
2023/06/06 06:18:24;;;;;;;13.50;11.57;;;19.40;71.70;;;;;;5055555;28;20940;-56
2023/06/06 06:20:51;;;;;;;14.23;11.17;;;19.50;71.80;;;;;;5056063;28;20492;-56
2023/06/06 06:23:17;;;;;;;11.43;9.27;;;19.50;71.90;;;;;;5055752;28;20477;-56
2023/06/06 06:25:44;;;;;;;11.10;9.30;;;19.60;71.40;;;;;;5055674;28;20472;-56
2023/06/06 06:28:20;;;;;;;14.10;11.27;;;19.70;71.00;;;;;;5056044;28;20453;-56
2023/06/06 06:30:49;;;;;;;13.17;9.67;;;19.90;71.40;;;;;;5055726;28;20470;-56
2023/06/06 06:33:16;;;;;;;14.17;10.40;;;19.90;70.90;;;;;;5055669;28;20445;-56
2023/06/06 06:35:43;;;;;;;10.43;9.43;;;20.00;70.70;;;;;;5055142;28;20991;-56
2023/06/06 06:38:10;;;;;;;14.27;11.00;;;20.10;70.10;;;;;;5055524;28;20538;-56
2023/06/06 06:40:36;;;;;;;12.03;9.87;;;20.20;69.40;;;;;;5055427;28;20450;-56
2023/06/06 06:43:03;;;;;;;13.43;10.80;;;20.30;69.40;;;;;;5055354;28;20485;-56
2023/06/06 06:45:30;;;;;;;15.00;11.40;;;20.40;69.40;;;;;;5055341;28;20446;-56
2023/06/06 06:47:59;;;;;;;10.87;9.77;;;20.50;69.80;;;;;;5055102;28;21047;-56
2023/06/06 06:50:26;;;;;;;14.90;11.90;;;20.60;69.60;;;;;;5055291;28;20453;-56
2023/06/06 06:52:55;;;;;;;16.10;11.60;;;20.80;68.60;;;;;;5054957;28;20986;-56
2023/06/06 06:55:23;;;;;;;13.67;10.57;;;20.90;68.20;;;;;;5054812;28;20489;-56
2023/06/06 06:57:51;;;;;;;12.80;11.50;;;21.00;67.20;;;;;;5055137;28;20453;-56
2023/06/06 07:00:21;;;;;;;12.30;9.53;;;21.20;66.20;;;;;;5055196;28;20449;-56
2023/06/06 07:02:49;;;;;;;11.90;9.20;;;21.20;65.30;;;;;;5055067;28;20998;-57
2023/06/06 07:05:18;;;;;;;15.00;12.00;;;21.30;65.00;;;;;;5054934;28;20856;-56
2023/06/06 07:07:46;;;;;;;13.10;11.40;;;21.40;65.60;;;;;;5054896;28;20507;-56
2023/06/06 07:10:15;;;;;;;14.60;10.30;;;21.60;65.50;;;;;;5054979;28;20492;-56
2023/06/06 07:12:42;;;;;;;14.50;10.97;;;21.70;64.20;;;;;;5053506;28;20493;-56
2023/06/06 07:15:09;;;;;;;15.63;11.87;;;21.90;64.00;;;;;;5054820;28;20456;-56
2023/06/06 07:17:36;;;;;;;19.27;13.17;;;22.00;62.00;;;;;;5054668;28;20900;-56
2023/06/06 07:20:05;;;;;;;12.47;10.23;;;22.00;61.70;;;;;;5054705;28;20520;-56
2023/06/06 07:22:35;;;;;;;11.37;10.10;;;22.10;61.40;;;;;;5054580;28;20488;-56
2023/06/06 07:25:03;;;;;;;13.37;11.57;;;22.30;61.60;;;;;;5054572;28;20797;-56
2023/06/06 07:27:33;;;;;;;17.07;10.30;;;22.40;61.00;;;;;;5054689;28;20469;-56
2023/06/06 07:30:01;;;;;;;13.30;11.40;;;22.60;60.50;;;;;;5054541;28;20803;-56
2023/06/06 07:32:27;;;;;;;13.43;8.50;;;22.70;60.20;;;;;;5054439;28;20481;-56
2023/06/06 07:34:55;;;;;;;11.10;9.43;;;22.90;59.60;;;;;;5054463;28;20450;-56
2023/06/06 07:37:22;;;;;;;12.90;11.17;;;23.10;59.10;;;;;;5054354;28;20896;-56
2023/06/06 07:39:50;;;;;;;14.13;9.20;;;23.40;59.60;;;;;;5054343;28;20524;-56
2023/06/06 07:42:17;;;;;;;13.30;11.40;;;23.50;58.20;;;;;;5054240;28;20450;-56
2023/06/06 07:44:43;;;;;;;18.13;12.23;;;23.50;58.20;;;;;;5054267;28;20445;-56
2023/06/06 07:47:10;;;;;;;14.33;10.63;;;23.60;57.20;;;;;;5053638;28;21017;-56
2023/06/06 07:49:37;;;;;;;14.40;11.70;;;23.70;57.10;;;;;;5054119;28;20450;-56
2023/06/06 07:52:04;;;;;;;10.87;9.50;;;23.90;57.00;;;;;;5054331;28;20548;-56
2023/06/06 07:54:31;;;;;;;14.57;11.20;;;24.00;55.80;;;;;;5054055;28;20446;-56
2023/06/06 07:56:59;;;;;;;13.70;10.60;;;24.10;55.60;;;;;;5053807;28;20971;-56
2023/06/06 07:59:27;;;;;;;12.17;10.17;;;24.30;55.40;;;;;;5053723;28;20983;-56
2023/06/06 08:01:54;;;;;;;11.70;9.07;;;24.50;54.80;;;;;;5053897;28;20528;-57
2023/06/06 08:04:20;;;;;;;11.23;8.40;;;24.70;54.40;;;;;;5053820;28;20485;-56
2023/06/06 08:06:47;;;;;;;10.53;9.20;;;24.90;53.90;;;;;;5053771;28;20465;-57
2023/06/06 08:09:14;;;;;;;13.43;10.93;;;25.10;53.00;;;;;;5053768;28;20456;-56
2023/06/06 08:11:40;;;;;;;13.30;11.90;;;25.40;53.00;;;;;;5053681;28;20457;-57
2023/06/06 08:14:08;;;;;;;13.23;10.90;;;25.40;51.90;;;;;;5053729;28;20445;-56
2023/06/06 08:16:35;;;;;;;16.53;10.40;;;25.40;52.10;;;;;;5053676;28;20516;-56
2023/06/06 08:19:03;;;;;;;13.17;11.30;;;25.50;51.70;;;;;;5053402;28;20445;-57
2023/06/06 08:21:30;;;;;;;16.90;10.97;;;25.40;51.80;;;;;;5053274;28;20966;-57
2023/06/06 08:23:57;;;;;;;10.80;8.67;;;25.40;52.10;;;;;;5053431;28;20901;-57
2023/06/06 08:26:25;;;;;;;15.00;10.63;;;25.50;51.80;;;;;;5053421;28;20473;-57
2023/06/06 08:28:51;;;;;;;11.47;8.73;;;25.70;51.70;;;;;;5053418;28;20479;-57
2023/06/06 08:31:19;;;;;;;13.90;10.13;;;25.80;50.60;;;;;;5053489;28;20448;-56
2023/06/06 08:33:47;;;;;;;12.50;9.57;;;26.00;50.60;;;;;;5053514;28;20442;-57
2023/06/06 08:36:14;;;;;;;10.60;8.67;;;26.10;49.90;;;;;;5054026;28;20480;-57
2023/06/06 08:38:41;;;;;;;15.07;11.17;;;26.30;50.70;;;;;;5053534;28;20533;-57
2023/06/06 08:41:09;;;;;;;10.27;7.37;;;26.40;50.10;;;;;;5053687;28;20449;-57
2023/06/06 08:43:40;;;;;;;8.40;7.60;;;26.50;49.30;;;;;;5053368;28;20477;-57
2023/06/06 08:46:07;;;;;;;7.43;6.77;;;26.70;49.40;;;;;;5053353;28;20465;-57
2023/06/06 08:48:37;;;;;;;16.93;10.77;;;27.00;49.00;;;;;;5053421;28;20449;-57
2023/06/06 08:51:04;;;;;;;14.83;11.17;;;27.30;48.40;;;;;;5053297;28;20815;-57
2023/06/06 08:53:31;;;;;;;11.37;9.20;;;27.40;47.20;;;;;;5053126;28;20449;-57
2023/06/06 08:55:58;;;;;;;9.47;7.53;;;27.40;46.90;;;;;;5053170;28;20543;-57
2023/06/06 08:58:26;;;;;;;12.73;7.40;;;27.60;47.00;;;;;;5052838;28;20833;-57
2023/06/06 09:00:53;;;;;;;9.17;7.60;;;27.70;45.80;;;;;;5052996;28;20449;-57
2023/06/06 09:03:22;;;;;;;9.57;8.50;;;28.00;45.20;;;;;;5053104;28;20484;-57
2023/06/06 09:05:51;;;;;;;13.27;10.07;;;28.30;45.10;;;;;;5052862;28;20986;-57
2023/06/06 09:08:19;;;;;;;8.90;8.00;;;28.60;44.50;;;;;;5053103;28;20467;-57
2023/06/06 09:10:46;;;;;;;13.37;10.27;;;28.80;43.80;;;;;;5053115;28;20533;-58
2023/06/06 09:13:13;;;;;;;8.43;6.97;;;28.90;43.80;;;;;;5053208;28;20453;-57
2023/06/06 09:15:39;;;;;;;13.87;8.40;;;29.10;43.80;;;;;;5053101;28;20451;-57
2023/06/06 09:18:07;;;;;;;10.10;6.87;;;29.30;43.90;;;;;;5053322;28;20902;-57
2023/06/06 09:20:35;;;;;;;13.43;7.07;;;29.50;43.00;;;;;;5053059;28;20456;-57
2023/06/06 09:23:03;;;;;;;10.10;8.60;;;29.80;42.00;;;;;;5052853;28;20480;-57
2023/06/06 09:25:31;;;;;;;13.40;10.43;;;30.10;41.30;;;;;;5052900;28;20456;-57
2023/06/06 09:28:02;;;;;;;10.63;7.83;;;30.30;41.00;;;;;;5053568;28;20851;-57
2023/06/06 09:30:30;;;;;;;13.60;11.47;;;30.50;40.20;;;;;;5053142;28;20511;-57
2023/06/06 09:32:58;;;;;;;11.27;9.50;;;30.50;40.10;;;;;;5052954;28;20808;-57
2023/06/06 09:35:29;;;;;;;9.57;7.27;;;30.50;39.70;;;;;;5052549;28;20935;-57
2023/06/06 09:37:57;;;;;;;13.17;8.50;;;30.60;39.30;;;;;;5056843;28;20425;-56
2023/06/06 09:40:26;;;;;;;11.00;9.43;;;30.80;39.80;;;;;;5056545;28;20863;-56
2023/06/06 09:42:53;;;;;;;12.40;8.67;;;31.00;39.10;;;;;;5056964;28;20456;-55
2023/06/06 09:45:20;;;;;;;13.30;9.07;;;31.10;38.70;;;;;;5056853;28;20502;-55
2023/06/06 09:47:49;;;;;;;9.83;8.27;;;31.10;38.50;;;;;;5056331;28;20834;-56
2023/06/06 09:50:17;;;;;;;10.80;7.73;;;31.20;38.80;;;;;;5056428;28;20479;-55
2023/06/06 09:52:44;;;;;;;8.37;7.60;;;31.30;38.40;;;;;;5056103;28;20954;-55
2023/06/06 09:55:13;;;;;;;8.33;6.57;;;31.60;37.70;;;;;;5056313;28;20444;-56
2023/06/06 09:57:41;;;;;;;7.30;6.50;;;32.00;37.50;;;;;;5055878;28;20990;-56
2023/06/06 10:00:12;;;;;;;8.13;6.30;;;32.30;37.00;;;;;;5056276;28;20495;-56
2023/06/06 10:02:43;;;;;;;12.10;8.40;;;32.70;36.00;;;;;;5056302;28;20437;-56
2023/06/06 10:05:12;;;;;;;12.37;7.90;;;33.00;34.40;;;;;;5056103;28;20542;-56
2023/06/06 10:07:41;;;;;;;7.20;6.20;;;33.10;34.20;;;;;;5055784;28;20900;-56
2023/06/06 10:10:11;;;;;;;8.33;7.30;;;33.20;34.40;;;;;;5056556;28;20452;-56
2023/06/06 10:12:38;;;;;;;11.97;9.40;;;33.60;34.20;;;;;;5055830;28;20560;-56
2023/06/06 10:15:08;;;;;;;12.47;9.17;;;34.00;33.60;;;;;;5055934;28;20802;-56
2023/06/06 10:17:37;;;;;;;12.47;8.67;;;34.30;32.10;;;;;;5055629;28;20885;-57
2023/06/06 10:20:06;;;;;;;12.13;8.10;;;34.60;31.70;;;;;;5055868;28;20515;-56
2023/06/06 10:22:34;;;;;;;11.70;7.03;;;34.90;31.30;;;;;;5055880;28;20495;-56
2023/06/06 10:25:01;;;;;;;9.50;6.27;;;35.20;30.80;;;;;;5055764;28;20563;-56
2023/06/06 10:27:36;;;;;;;13.13;8.50;;;35.60;30.50;;;;;;5055442;28;20837;-56
2023/06/06 10:30:10;;;;;;;12.80;7.90;;;35.90;29.80;;;;;;5055562;28;20632;-56
2023/06/06 10:33:00;;;;;;;8.43;6.20;;;36.30;29.10;;;;;;5055626;28;20659;-56
2023/06/06 10:35:27;;;;;;;7.67;6.20;;;36.60;29.40;;;;;;5055422;28;20219;-56
2023/06/06 10:38:03;;;;;;;8.40;7.60;;;37.10;29.20;;;;;;5055566;28;20214;-56
2023/06/06 10:40:42;;;;;;;9.18;6.57;;;37.50;27.30;;;;;;5055515;28;20202;-56
2023/06/06 10:43:09;;;;;;;12.48;5.40;;;37.90;27.00;;;;;;5055426;28;20696;-56
2023/06/06 10:45:44;;;;;;;6.70;5.50;;;38.10;26.60;;;;;;5055310;28;20246;-56
2023/06/06 10:48:13;;;;;;;6.82;6.00;;;38.60;26.80;;;;;;5054242;28;20216;-56
2023/06/06 10:50:52;;;;;;;11.73;6.75;;;39.00;25.90;;;;;;5055322;28;20245;-56
2023/06/06 10:53:19;;;;;;;8.13;6.10;;;39.50;25.30;;;;;;5055350;28;20186;-56
2023/06/06 10:55:46;;;;;;;8.60;5.07;;;39.80;24.10;;;;;;5054829;28;20639;-56
2023/06/06 10:58:19;;;;;;;6.68;6.07;;;40.10;23.90;;;;;;5055251;28;20579;-56
2023/06/06 11:00:49;;;;;;;4.78;4.22;;;40.60;23.70;;;;;;5055147;28;20187;-56
2023/06/06 11:03:19;;;;;;;8.82;4.47;;;41.00;23.30;;;;;;5054974;28;20305;-56
2023/06/06 11:06:11;;;;;;;7.80;5.20;;;41.50;22.70;;;;;;5054976;28;20245;-56
2023/06/06 11:08:39;;;;;;;8.95;6.75;;;42.00;22.50;;;;;;5054997;28;20187;-56
2023/06/06 11:11:18;;;;;;;4.80;4.38;;;42.30;21.40;;;;;;5054776;28;20221;-56
2023/06/06 11:14:02;;;;;;;6.25;4.07;;;42.60;21.30;;;;;;5054563;28;20202;-56
2023/06/06 11:16:51;;;;;;;7.82;4.55;;;42.80;21.00;;;;;;5054814;28;20233;-56
2023/06/06 11:19:19;;;;;;;4.85;3.83;;;43.20;20.50;;;;;;5054771;28;20206;-57
2023/06/06 11:21:48;;;;;;;4.05;3.50;;;43.60;20.40;;;;;;5054714;28;20241;-57
2023/06/06 11:24:18;;;;;;;5.25;4.18;;;43.90;19.40;;;;;;5054650;28;20222;-57
2023/06/06 11:26:45;;;;;;;5.28;4.18;;;44.10;19.00;;;;;;5054693;28;20276;-56
2023/06/06 11:29:13;;;;;;;9.60;4.57;;;44.40;19.10;;;;;;5054818;28;20220;-57
2023/06/06 11:31:41;;;;;;;7.15;4.28;;;44.70;18.90;;;;;;5054837;28;20214;-57
2023/06/06 11:34:09;;;;;;;3.97;3.63;;;45.00;18.80;;;;;;5054524;28;20198;-57
2023/06/06 11:36:38;;;;;;;5.05;3.75;;;45.20;18.40;;;;;;5054143;28;20215;-57
2023/06/06 11:39:07;;;;;;;6.53;3.97;;;45.40;18.40;;;;;;5054077;28;20677;-56
2023/06/06 11:41:37;;;;;;;4.88;3.67;;;45.60;18.40;;;;;;5054670;28;20198;-57
2023/06/06 11:44:04;;;;;;;4.20;3.65;;;45.90;18.00;;;;;;5054487;28;20215;-57
2023/06/06 11:46:31;;;;;;;4.78;3.55;;;46.00;17.60;;;;;;5054312;28;20237;-57
2023/06/06 11:48:59;;;;;;;7.38;4.40;;;46.10;17.80;;;;;;5054554;28;20205;-57
2023/06/06 11:51:26;;;;;;;4.88;3.50;;;46.30;17.90;;;;;;5054368;28;20238;-56
2023/06/06 11:53:53;;;;;;;8.05;4.05;;;46.30;17.30;;;;;;5054375;28;20203;-57
2023/06/06 11:56:21;;;;;;;5.18;3.47;;;46.50;17.20;;;;;;5054017;28;20229;-57
2023/06/06 11:58:48;;;;;;;4.05;3.67;;;46.60;17.20;;;;;;5053694;28;20207;-57
2023/06/06 12:01:15;;;;;;;4.03;3.63;;;46.80;16.80;;;;;;5053966;28;20206;-57
2023/06/06 12:03:42;;;;;;;8.00;4.00;;;46.80;16.70;;;;;;5053959;28;20213;-57
2023/06/06 12:06:10;;;;;;;4.40;4.00;;;46.90;17.20;;;;;;5053822;28;20222;-57
2023/06/06 12:08:38;;;;;;;7.97;3.80;;;47.00;16.50;;;;;;5053693;28;20264;-57
2023/06/06 12:11:21;;;;;;;4.80;3.40;;;47.00;16.30;;;;;;5053730;28;20210;-57
2023/06/06 12:13:48;;;;;;;6.50;3.70;;;47.20;16.70;;;;;;5054118;28;20242;-57
2023/06/06 12:16:21;;;;;;;11.60;3.90;;;47.30;16.20;;;;;;5053206;28;20712;-57
2023/06/06 12:18:47;;;;;;;8.02;4.28;;;47.40;16.40;;;;;;5053729;28;20224;-57
2023/06/06 12:21:16;;;;;;;6.38;3.35;;;47.40;16.00;;;;;;5053614;28;20268;-57
2023/06/06 12:23:44;;;;;;;6.13;3.60;;;47.50;16.10;;;;;;5053686;28;20575;-57
2023/06/06 12:26:12;;;;;;;6.00;3.50;;;47.70;16.10;;;;;;5053360;28;20280;-57
2023/06/06 12:28:54;;;;;;;3.85;3.45;;;47.90;15.50;;;;;;5053467;28;20245;-57
2023/06/06 12:31:21;;;;;;;8.07;3.90;;;48.20;15.20;;;;;;5053848;28;20198;-57
2023/06/06 12:33:48;;;;;;;5.20;3.35;;;48.30;14.80;;;;;;5054475;28;20202;-60
2023/06/06 12:36:17;;;;;;;5.13;3.15;;;48.30;15.20;;;;;;5053560;28;20712;-57
2023/06/06 12:38:44;;;;;;;6.07;3.90;;;48.30;14.80;;;;;;5064172;28;20205;-57
2023/06/06 12:41:11;;;;;;;5.60;3.40;;;47.90;14.80;;;;;;5073430;28;20296;-57
2023/06/06 12:43:38;;;;;;;7.10;3.53;;;47.70;15.20;;;;;;5073390;28;20202;-57